CFG1AF EDDF-LGSM
Flight info
| Callsign | CFG1AF |
|---|---|
| Flight time | N/A |
| Altitude | 33000 |
| Route | CINDY8S/18 CINDY Z74 LAMPU DCT NOMBO Y161 MAH DCT VAVOR DCT RADIZ DCT KUSIB DCT OKSIG DCT MARIL DCT BOSNA DCT PODOB DCT MEDUX UM867 KOGAT DCT ERANA UL737 TSL UN130 PIVOS N130 MES G18 URNIL |
| Aircraft | A321/M-SDE3FGHIRWY/LB1 |
Departure
| Time | N/A |
|---|---|
| Airport | Frankfurt Main Airport (EDDF) |
Arrival
| Time | 2026-05-06 17:02 |
|---|---|
| Airport | Samos Airport (LGSM) |
| Time | Latitude | Longitude | Altitude | Speed | Heading |
|---|---|---|---|---|---|
| 2026-05-06 16:45 | 37.45829 | 26.85394 | 6168 ft | 261 kts | 82° |
| 2026-05-06 16:45 | 37.46321 | 26.87480 | 6116 ft | 243 kts | 56° |
| 2026-05-06 16:46 | 37.46737 | 26.88207 | 6097 ft | 233 kts | 45° |
| 2026-05-06 16:46 | 37.47989 | 26.89161 | 5936 ft | 217 kts | 20° |
| 2026-05-06 16:46 | 37.49373 | 26.89593 | 5902 ft | 201 kts | 5° |
| 2026-05-06 16:46 | 37.50701 | 26.89727 | 5841 ft | 174 kts | 4° |
| 2026-05-06 16:47 | 37.51873 | 26.89816 | 5599 ft | 168 kts | 2° |
| 2026-05-06 16:47 | 37.53023 | 26.89743 | 5236 ft | 163 kts | 352° |
| 2026-05-06 16:47 | 37.54109 | 26.89470 | 4868 ft | 154 kts | 351° |
| 2026-05-06 16:47 | 37.55148 | 26.89304 | 4461 ft | 148 kts | 5° |
| 2026-05-06 16:48 | 37.56163 | 26.89376 | 4055 ft | 147 kts | 4° |
| 2026-05-06 16:48 | 37.57183 | 26.89422 | 3603 ft | 147 kts | 2° |
| 2026-05-06 16:48 | 37.58216 | 26.89461 | 3097 ft | 150 kts | 1° |
| 2026-05-06 16:48 | 37.59240 | 26.89144 | 2557 ft | 153 kts | 343° |
| 2026-05-06 16:49 | 37.60232 | 26.88800 | 2257 ft | 145 kts | 346° |
| 2026-05-06 16:49 | 37.61185 | 26.88428 | 1998 ft | 142 kts | 341° |
| 2026-05-06 16:49 | 37.62109 | 26.88001 | 1822 ft | 141 kts | 339° |
| 2026-05-06 16:49 | 37.63006 | 26.87583 | 1617 ft | 141 kts | 339° |
| 2026-05-06 16:50 | 37.63955 | 26.87188 | 1413 ft | 143 kts | 343° |
| 2026-05-06 16:50 | 37.64860 | 26.86921 | 1209 ft | 142 kts | 347° |
| 2026-05-06 16:50 | 37.65830 | 26.86696 | 896 ft | 144 kts | 348° |
| 2026-05-06 16:50 | 37.66515 | 26.86666 | 732 ft | 148 kts | 7° |
| 2026-05-06 16:51 | 37.67824 | 26.87242 | 625 ft | 153 kts | 22° |
| 2026-05-06 16:51 | 37.68680 | 26.88011 | 534 ft | 153 kts | 53° |
| 2026-05-06 16:51 | 37.69027 | 26.89205 | 304 ft | 147 kts | 94° |
| 2026-05-06 16:51 | 37.68964 | 26.90426 | 43 ft | 142 kts | 98° |
| 2026-05-06 16:52 | 37.68900 | 26.91575 | 532 ft | 147 kts | 98° |
| 2026-05-06 16:52 | 37.68813 | 26.92963 | 1040 ft | 171 kts | 95° |
| 2026-05-06 16:52 | 37.68382 | 26.94401 | 1641 ft | 182 kts | 130° |
| 2026-05-06 16:52 | 37.67301 | 26.95206 | 2014 ft | 188 kts | 171° |
| 2026-05-06 16:53 | 37.65958 | 26.95462 | 2286 ft | 203 kts | 175° |
| 2026-05-06 16:53 | 37.64513 | 26.95648 | 2616 ft | 211 kts | 176° |
| 2026-05-06 16:53 | 37.63015 | 26.95789 | 2797 ft | 224 kts | 176° |
| 2026-05-06 16:53 | 37.61541 | 26.95921 | 3577 ft | 201 kts | 176° |
| 2026-05-06 16:54 | 37.60140 | 26.96033 | 3906 ft | 211 kts | 176° |
| 2026-05-06 16:54 | 37.58647 | 26.96144 | 3973 ft | 210 kts | 176° |
| 2026-05-06 16:54 | 37.58161 | 26.96180 | 3936 ft | 206 kts | 176° |
| 2026-05-06 16:54 | 37.56419 | 26.96311 | 3616 ft | 200 kts | 176° |
| 2026-05-06 16:55 | 37.55034 | 26.96419 | 3344 ft | 200 kts | 176° |
| 2026-05-06 16:55 | 37.53664 | 26.96267 | 3059 ft | 197 kts | 202° |
| 2026-05-06 16:55 | 37.52881 | 26.95714 | 3016 ft | 194 kts | 223° |
| 2026-05-06 16:55 | 37.52536 | 26.95282 | 3023 ft | 193 kts | 234° |
| 2026-05-06 16:56 | 37.52151 | 26.94146 | 3079 ft | 186 kts | 265° |
| 2026-05-06 16:56 | 37.52159 | 26.92534 | 3027 ft | 184 kts | 285° |
| 2026-05-06 16:56 | 37.52715 | 26.91109 | 3013 ft | 182 kts | 314° |
| 2026-05-06 16:56 | 37.53739 | 26.90218 | 3013 ft | 180 kts | 342° |
| 2026-05-06 16:57 | 37.54934 | 26.89736 | 2926 ft | 181 kts | 345° |
| 2026-05-06 16:57 | 37.56139 | 26.89300 | 2767 ft | 179 kts | 345° |
| 2026-05-06 16:57 | 37.57336 | 26.88886 | 2619 ft | 177 kts | 345° |
| 2026-05-06 16:57 | 37.58478 | 26.88469 | 2598 ft | 165 kts | 344° |
| 2026-05-06 16:58 | 37.59552 | 26.88032 | 2504 ft | 160 kts | 343° |
| 2026-05-06 16:58 | 37.60607 | 26.87609 | 2485 ft | 160 kts | 343° |
| 2026-05-06 16:58 | 37.61647 | 26.87192 | 2265 ft | 149 kts | 343° |
| 2026-05-06 16:58 | 37.62623 | 26.86802 | 1965 ft | 146 kts | 342° |
| 2026-05-06 16:59 | 37.63592 | 26.86435 | 1666 ft | 145 kts | 345° |
| 2026-05-06 16:59 | 37.64579 | 26.86168 | 1428 ft | 145 kts | 348° |
| 2026-05-06 16:59 | 37.65573 | 26.85936 | 1206 ft | 146 kts | 348° |
| 2026-05-06 16:59 | 37.66567 | 26.85711 | 1031 ft | 145 kts | 349° |
| 2026-05-06 17:00 | 37.67573 | 26.85568 | 770 ft | 148 kts | 4° |
| 2026-05-06 17:00 | 37.68214 | 26.85835 | 718 ft | 150 kts | 33° |
| 2026-05-06 17:00 | 37.68879 | 26.86835 | 592 ft | 150 kts | 69° |
| 2026-05-06 17:00 | 37.69082 | 26.88079 | 418 ft | 147 kts | 91° |
| 2026-05-06 17:01 | 37.68999 | 26.89767 | 122 ft | 143 kts | 95° |
| 2026-05-06 17:01 | 37.68954 | 26.90584 | 36 ft | 138 kts | 94° |
| 2026-05-06 17:01 | 37.68909 | 26.91356 | 29 ft | 104 kts | 93° |
| 2026-05-06 17:01 | 37.68875 | 26.91909 | 29 ft | 64 kts | 94° |
| 2026-05-06 17:02 | 37.68865 | 26.92107 | 29 ft | 1 kts | 94° |